sensor_id;sensor_type;location;lat;lon;timestamp;P1;durP1;ratioP1;P2;durP2;ratioP2
75700;SDS011;64321;48.796;44.740;2023-11-21T00:03:42;19.65;;;8.10;;
75700;SDS011;64321;48.796;44.740;2023-11-21T00:08:45;20.73;;;8.20;;
75700;SDS011;64321;48.796;44.740;2023-11-21T00:13:47;20.40;;;9.02;;
75700;SDS011;64321;48.796;44.740;2023-11-21T00:18:51;21.45;;;9.57;;
75700;SDS011;64321;48.796;44.740;2023-11-21T00:23:54;19.17;;;8.23;;
75700;SDS011;64321;48.796;44.740;2023-11-21T00:28:56;18.55;;;7.25;;
75700;SDS011;64321;48.796;44.740;2023-11-21T00:33:58;17.10;;;7.78;;
75700;SDS011;64321;48.796;44.740;2023-11-21T00:39:01;18.35;;;7.88;;
75700;SDS011;64321;48.796;44.740;2023-11-21T00:44:04;16.83;;;6.53;;
75700;SDS011;64321;48.796;44.740;2023-11-21T00:49:06;15.70;;;6.65;;
75700;SDS011;64321;48.796;44.740;2023-11-21T00:54:09;13.05;;;5.45;;
75700;SDS011;64321;48.796;44.740;2023-11-21T00:59:13;13.38;;;5.57;;
75700;SDS011;64321;48.796;44.740;2023-11-21T01:04:15;13.77;;;5.60;;
75700;SDS011;64321;48.796;44.740;2023-11-21T01:09:18;12.73;;;5.72;;
75700;SDS011;64321;48.796;44.740;2023-11-21T01:14:20;11.43;;;5.95;;
75700;SDS011;64321;48.796;44.740;2023-11-21T01:19:23;12.85;;;5.97;;
75700;SDS011;64321;48.796;44.740;2023-11-21T01:24:25;12.18;;;5.78;;
75700;SDS011;64321;48.796;44.740;2023-11-21T01:29:28;19.80;;;8.82;;
75700;SDS011;64321;48.796;44.740;2023-11-21T01:34:30;23.20;;;8.00;;
75700;SDS011;64321;48.796;44.740;2023-11-21T01:39:34;27.17;;;8.80;;
75700;SDS011;64321;48.796;44.740;2023-11-21T01:44:37;19.45;;;8.95;;
75700;SDS011;64321;48.796;44.740;2023-11-21T01:49:39;16.70;;;6.97;;
75700;SDS011;64321;48.796;44.740;2023-11-21T01:54:42;16.17;;;7.15;;
75700;SDS011;64321;48.796;44.740;2023-11-21T01:59:45;21.83;;;8.88;;
75700;SDS011;64321;48.796;44.740;2023-11-21T02:04:47;24.52;;;8.75;;
75700;SDS011;64321;48.796;44.740;2023-11-21T02:09:50;19.20;;;8.40;;
75700;SDS011;64321;48.796;44.740;2023-11-21T02:14:52;13.07;;;5.70;;
75700;SDS011;64321;48.796;44.740;2023-11-21T02:19:55;15.30;;;6.78;;
75700;SDS011;64321;48.796;44.740;2023-11-21T02:25:18;13.65;;;5.80;;
75700;SDS011;64321;48.796;44.740;2023-11-21T02:30:21;12.73;;;6.38;;
75700;SDS011;64321;48.796;44.740;2023-11-21T02:35:23;10.02;;;4.22;;
75700;SDS011;64321;48.796;44.740;2023-11-21T02:40:27;12.50;;;4.15;;
75700;SDS011;64321;48.796;44.740;2023-11-21T02:45:31;10.05;;;4.47;;
75700;SDS011;64321;48.796;44.740;2023-11-21T02:50:33;9.85;;;4.65;;
75700;SDS011;64321;48.796;44.740;2023-11-21T02:55:37;12.70;;;6.18;;
75700;SDS011;64321;48.796;44.740;2023-11-21T03:00:39;9.90;;;4.45;;
75700;SDS011;64321;48.796;44.740;2023-11-21T03:05:43;5.43;;;2.03;;
75700;SDS011;64321;48.796;44.740;2023-11-21T03:10:46;5.55;;;2.28;;
75700;SDS011;64321;48.796;44.740;2023-11-21T03:15:48;10.80;;;6.47;;
75700;SDS011;64321;48.796;44.740;2023-11-21T03:20:52;12.20;;;7.13;;
75700;SDS011;64321;48.796;44.740;2023-11-21T03:25:54;12.18;;;7.30;;
75700;SDS011;64321;48.796;44.740;2023-11-21T03:30:56;9.93;;;6.38;;
75700;SDS011;64321;48.796;44.740;2023-11-21T03:35:59;7.80;;;5.38;;
75700;SDS011;64321;48.796;44.740;2023-11-21T03:41:02;5.32;;;3.75;;
75700;SDS011;64321;48.796;44.740;2023-11-21T03:46:04;5.03;;;2.10;;
75700;SDS011;64321;48.796;44.740;2023-11-21T03:51:07;4.38;;;2.33;;
75700;SDS011;64321;48.796;44.740;2023-11-21T03:56:09;4.07;;;1.83;;
75700;SDS011;64321;48.796;44.740;2023-11-21T04:01:23;6.43;;;3.53;;
75700;SDS011;64321;48.796;44.740;2023-11-21T04:06:26;7.60;;;3.38;;
75700;SDS011;64321;48.796;44.740;2023-11-21T04:11:28;6.15;;;3.25;;
75700;SDS011;64321;48.796;44.740;2023-11-21T04:16:32;4.97;;;1.92;;
75700;SDS011;64321;48.796;44.740;2023-11-21T04:21:34;5.47;;;2.83;;
75700;SDS011;64321;48.796;44.740;2023-11-21T04:26:36;3.67;;;1.40;;
75700;SDS011;64321;48.796;44.740;2023-11-21T04:31:39;2.97;;;0.98;;
75700;SDS011;64321;48.796;44.740;2023-11-21T04:36:42;4.57;;;2.17;;
75700;SDS011;64321;48.796;44.740;2023-11-21T04:41:44;3.75;;;1.50;;
75700;SDS011;64321;48.796;44.740;2023-11-21T04:46:46;3.63;;;1.27;;
75700;SDS011;64321;48.796;44.740;2023-11-21T04:51:49;3.85;;;1.30;;
75700;SDS011;64321;48.796;44.740;2023-11-21T04:56:51;4.07;;;1.45;;
75700;SDS011;64321;48.796;44.740;2023-11-21T05:01:53;3.35;;;1.25;;
75700;SDS011;64321;48.796;44.740;2023-11-21T05:06:56;2.97;;;0.98;;
75700;SDS011;64321;48.796;44.740;2023-11-21T05:11:58;1.83;;;0.60;;
75700;SDS011;64321;48.796;44.740;2023-11-21T05:17:02;1.48;;;0.50;;
75700;SDS011;64321;48.796;44.740;2023-11-21T05:22:06;2.03;;;1.30;;
75700;SDS011;64321;48.796;44.740;2023-11-21T05:27:10;1.85;;;0.70;;
75700;SDS011;64321;48.796;44.740;2023-11-21T05:32:13;3.42;;;1.55;;
75700;SDS011;64321;48.796;44.740;2023-11-21T05:37:16;2.72;;;1.13;;
75700;SDS011;64321;48.796;44.740;2023-11-21T05:42:19;2.47;;;1.10;;
75700;SDS011;64321;48.796;44.740;2023-11-21T05:47:22;2.33;;;0.98;;
75700;SDS011;64321;48.796;44.740;2023-11-21T05:52:25;3.50;;;1.75;;
75700;SDS011;64321;48.796;44.740;2023-11-21T05:57:27;3.70;;;2.03;;
75700;SDS011;64321;48.796;44.740;2023-11-21T06:02:30;3.25;;;1.55;;
75700;SDS011;64321;48.796;44.740;2023-11-21T06:07:32;3.30;;;1.10;;
75700;SDS011;64321;48.796;44.740;2023-11-21T06:12:35;5.57;;;1.17;;
75700;SDS011;64321;48.796;44.740;2023-11-21T06:17:38;6.20;;;1.90;;
75700;SDS011;64321;48.796;44.740;2023-11-21T06:22:42;6.50;;;2.22;;
75700;SDS011;64321;48.796;44.740;2023-11-21T06:27:47;6.20;;;3.75;;
75700;SDS011;64321;48.796;44.740;2023-11-21T06:32:50;6.50;;;3.15;;
75700;SDS011;64321;48.796;44.740;2023-11-21T06:37:53;7.63;;;3.95;;
75700;SDS011;64321;48.796;44.740;2023-11-21T06:42:55;6.28;;;2.50;;
75700;SDS011;64321;48.796;44.740;2023-11-21T06:47:58;9.80;;;4.63;;
75700;SDS011;64321;48.796;44.740;2023-11-21T06:53:01;7.25;;;2.78;;
75700;SDS011;64321;48.796;44.740;2023-11-21T06:58:06;8.07;;;2.97;;
75700;SDS011;64321;48.796;44.740;2023-11-21T07:03:08;8.70;;;4.10;;
75700;SDS011;64321;48.796;44.740;2023-11-21T07:08:11;8.70;;;4.32;;
75700;SDS011;64321;48.796;44.740;2023-11-21T07:13:14;8.80;;;4.18;;
75700;SDS011;64321;48.796;44.740;2023-11-21T07:18:17;6.68;;;2.20;;
75700;SDS011;64321;48.796;44.740;2023-11-21T07:23:19;8.45;;;4.13;;
75700;SDS011;64321;48.796;44.740;2023-11-21T07:28:24;5.53;;;2.08;;
75700;SDS011;64321;48.796;44.740;2023-11-21T07:33:27;7.18;;;3.20;;
75700;SDS011;64321;48.796;44.740;2023-11-21T07:38:30;8.48;;;4.43;;
75700;SDS011;64321;48.796;44.740;2023-11-21T07:43:32;7.22;;;2.72;;
75700;SDS011;64321;48.796;44.740;2023-11-21T07:48:37;6.72;;;3.95;;
75700;SDS011;64321;48.796;44.740;2023-11-21T07:53:39;6.65;;;3.53;;
75700;SDS011;64321;48.796;44.740;2023-11-21T07:58:42;8.00;;;2.70;;
75700;SDS011;64321;48.796;44.740;2023-11-21T08:03:44;5.75;;;2.85;;
75700;SDS011;64321;48.796;44.740;2023-11-21T08:08:47;6.75;;;4.13;;
75700;SDS011;64321;48.796;44.740;2023-11-21T08:13:49;5.03;;;1.90;;
75700;SDS011;64321;48.796;44.740;2023-11-21T08:18:51;2.47;;;0.80;;
75700;SDS011;64321;48.796;44.740;2023-11-21T08:23:54;1.80;;;0.50;;
75700;SDS011;64321;48.796;44.740;2023-11-21T08:28:57;2.50;;;0.80;;
75700;SDS011;64321;48.796;44.740;2023-11-21T08:33:59;2.40;;;0.95;;
75700;SDS011;64321;48.796;44.740;2023-11-21T08:39:05;3.25;;;1.27;;
75700;SDS011;64321;48.796;44.740;2023-11-21T08:44:07;4.07;;;1.38;;
75700;SDS011;64321;48.796;44.740;2023-11-21T08:49:11;3.45;;;1.70;;
75700;SDS011;64321;48.796;44.740;2023-11-21T08:54:13;3.03;;;1.42;;
75700;SDS011;64321;48.796;44.740;2023-11-21T08:59:16;3.20;;;2.08;;
75700;SDS011;64321;48.796;44.740;2023-11-21T09:04:18;2.50;;;1.10;;
75700;SDS011;64321;48.796;44.740;2023-11-21T09:09:20;3.25;;;1.58;;
75700;SDS011;64321;48.796;44.740;2023-11-21T09:14:23;2.08;;;0.70;;
75700;SDS011;64321;48.796;44.740;2023-11-21T09:19:25;1.23;;;0.40;;
75700;SDS011;64321;48.796;44.740;2023-11-21T09:24:28;1.40;;;0.40;;
75700;SDS011;64321;48.796;44.740;2023-11-21T09:29:30;3.25;;;1.90;;
75700;SDS011;64321;48.796;44.740;2023-11-21T09:34:34;1.15;;;0.30;;
75700;SDS011;64321;48.796;44.740;2023-11-21T09:39:40;0.75;;;0.40;;
75700;SDS011;64321;48.796;44.740;2023-11-21T09:49:47;0.32;;;0.20;;
75700;SDS011;64321;48.796;44.740;2023-11-21T09:54:50;0.57;;;0.20;;
75700;SDS011;64321;48.796;44.740;2023-11-21T09:59:53;0.93;;;0.63;;
75700;SDS011;64321;48.796;44.740;2023-11-21T10:05:02;1.48;;;1.13;;
75700;SDS011;64321;48.796;44.740;2023-11-21T10:10:06;2.17;;;1.00;;
75700;SDS011;64321;48.796;44.740;2023-11-21T10:15:10;1.27;;;0.60;;
75700;SDS011;64321;48.796;44.740;2023-11-21T10:20:14;1.90;;;1.05;;
75700;SDS011;64321;48.796;44.740;2023-11-21T10:25:17;2.03;;;0.40;;
75700;SDS011;64321;48.796;44.740;2023-11-21T10:30:22;1.45;;;0.40;;
75700;SDS011;64321;48.796;44.740;2023-11-21T10:35:25;2.30;;;0.80;;
75700;SDS011;64321;48.796;44.740;2023-11-21T10:40:27;2.17;;;0.73;;
75700;SDS011;64321;48.796;44.740;2023-11-21T10:45:31;2.72;;;1.48;;
75700;SDS011;64321;48.796;44.740;2023-11-21T10:50:34;4.22;;;1.58;;
75700;SDS011;64321;48.796;44.740;2023-11-21T10:55:37;4.15;;;2.30;;
75700;SDS011;64321;48.796;44.740;2023-11-21T11:00:39;3.17;;;1.58;;
75700;SDS011;64321;48.796;44.740;2023-11-21T11:05:43;4.60;;;2.28;;
75700;SDS011;64321;48.796;44.740;2023-11-21T11:10:55;4.40;;;2.22;;
75700;SDS011;64321;48.796;44.740;2023-11-21T11:15:58;4.63;;;1.75;;
75700;SDS011;64321;48.796;44.740;2023-11-21T11:21:10;4.93;;;2.58;;
75700;SDS011;64321;48.796;44.740;2023-11-21T11:26:24;5.55;;;3.10;;
75700;SDS011;64321;48.796;44.740;2023-11-21T11:31:43;3.47;;;2.10;;
75700;SDS011;64321;48.796;44.740;2023-11-21T11:36:54;4.55;;;2.50;;
75700;SDS011;64321;48.796;44.740;2023-11-21T11:41:59;4.07;;;2.05;;
75700;SDS011;64321;48.796;44.740;2023-11-21T11:47:03;3.78;;;2.42;;
75700;SDS011;64321;48.796;44.740;2023-11-21T11:52:37;3.40;;;2.28;;
75700;SDS011;64321;48.796;44.740;2023-11-21T11:57:43;3.72;;;2.03;;
75700;SDS011;64321;48.796;44.740;2023-11-21T12:03:04;4.07;;;2.72;;
75700;SDS011;64321;48.796;44.740;2023-11-21T12:08:07;6.00;;;3.17;;
75700;SDS011;64321;48.796;44.740;2023-11-21T12:13:11;4.93;;;2.97;;
75700;SDS011;64321;48.796;44.740;2023-11-21T12:18:15;5.57;;;2.60;;
75700;SDS011;64321;48.796;44.740;2023-11-21T12:23:19;4.82;;;3.15;;
75700;SDS011;64321;48.796;44.740;2023-11-21T12:28:23;5.40;;;3.13;;
75700;SDS011;64321;48.796;44.740;2023-11-21T12:33:25;7.88;;;4.55;;
75700;SDS011;64321;48.796;44.740;2023-11-21T12:38:34;6.00;;;3.13;;
75700;SDS011;64321;48.796;44.740;2023-11-21T12:43:39;7.07;;;3.95;;
75700;SDS011;64321;48.796;44.740;2023-11-21T12:48:43;6.20;;;2.88;;
75700;SDS011;64321;48.796;44.740;2023-11-21T12:53:46;6.13;;;3.53;;
75700;SDS011;64321;48.796;44.740;2023-11-21T12:58:49;6.65;;;3.60;;
75700;SDS011;64321;48.796;44.740;2023-11-21T13:03:53;7.00;;;3.63;;
75700;SDS011;64321;48.796;44.740;2023-11-21T13:08:56;8.63;;;4.47;;
75700;SDS011;64321;48.796;44.740;2023-11-21T13:13:59;7.90;;;3.63;;
75700;SDS011;64321;48.796;44.740;2023-11-21T13:19:03;6.80;;;3.83;;
75700;SDS011;64321;48.796;44.740;2023-11-21T13:24:05;7.22;;;3.35;;
75700;SDS011;64321;48.796;44.740;2023-11-21T13:29:07;7.57;;;4.00;;
75700;SDS011;64321;48.796;44.740;2023-11-21T13:34:10;6.68;;;3.08;;
75700;SDS011;64321;48.796;44.740;2023-11-21T13:39:21;7.75;;;3.88;;
75700;SDS011;64321;48.796;44.740;2023-11-21T13:44:24;7.50;;;3.92;;
75700;SDS011;64321;48.796;44.740;2023-11-21T13:49:36;7.68;;;4.13;;
75700;SDS011;64321;48.796;44.740;2023-11-21T13:54:43;7.47;;;3.90;;
75700;SDS011;64321;48.796;44.740;2023-11-21T13:59:45;9.85;;;4.00;;
75700;SDS011;64321;48.796;44.740;2023-11-21T14:04:48;4.38;;;2.38;;
75700;SDS011;64321;48.796;44.740;2023-11-21T14:10:04;8.40;;;3.70;;
75700;SDS011;64321;48.796;44.740;2023-11-21T14:15:10;6.72;;;4.32;;
75700;SDS011;64321;48.796;44.740;2023-11-21T14:20:14;5.20;;;2.58;;
75700;SDS011;64321;48.796;44.740;2023-11-21T14:25:18;9.60;;;4.72;;
75700;SDS011;64321;48.796;44.740;2023-11-21T14:30:21;11.27;;;5.40;;
75700;SDS011;64321;48.796;44.740;2023-11-21T14:35:24;7.20;;;3.58;;
75700;SDS011;64321;48.796;44.740;2023-11-21T14:40:28;6.63;;;3.85;;
75700;SDS011;64321;48.796;44.740;2023-11-21T14:45:35;8.52;;;4.13;;
75700;SDS011;64321;48.796;44.740;2023-11-21T14:50:37;5.90;;;3.00;;
75700;SDS011;64321;48.796;44.740;2023-11-21T14:55:52;7.60;;;4.25;;
75700;SDS011;64321;48.796;44.740;2023-11-21T15:00:57;8.18;;;4.43;;
75700;SDS011;64321;48.796;44.740;2023-11-21T15:06:00;10.32;;;5.63;;
75700;SDS011;64321;48.796;44.740;2023-11-21T15:11:21;9.68;;;5.10;;
75700;SDS011;64321;48.796;44.740;2023-11-21T15:16:29;8.13;;;3.78;;
75700;SDS011;64321;48.796;44.740;2023-11-21T15:21:32;12.75;;;6.43;;
75700;SDS011;64321;48.796;44.740;2023-11-21T15:26:35;12.07;;;5.47;;
75700;SDS011;64321;48.796;44.740;2023-11-21T15:31:38;8.50;;;4.38;;
75700;SDS011;64321;48.796;44.740;2023-11-21T15:36:42;14.35;;;5.60;;
75700;SDS011;64321;48.796;44.740;2023-11-21T15:41:44;13.55;;;6.95;;
75700;SDS011;64321;48.796;44.740;2023-11-21T15:46:47;9.80;;;5.47;;
75700;SDS011;64321;48.796;44.740;2023-11-21T15:51:50;7.60;;;4.75;;
75700;SDS011;64321;48.796;44.740;2023-11-21T15:56:56;10.57;;;5.50;;
75700;SDS011;64321;48.796;44.740;2023-11-21T16:02:01;7.85;;;4.45;;
75700;SDS011;64321;48.796;44.740;2023-11-21T16:07:08;7.68;;;5.20;;
75700;SDS011;64321;48.796;44.740;2023-11-21T16:12:12;10.55;;;4.53;;
75700;SDS011;64321;48.796;44.740;2023-11-21T16:17:14;10.82;;;4.43;;
75700;SDS011;64321;48.796;44.740;2023-11-21T16:22:19;9.13;;;5.25;;
75700;SDS011;64321;48.796;44.740;2023-11-21T16:27:22;9.38;;;5.15;;
75700;SDS011;64321;48.796;44.740;2023-11-21T16:32:25;8.20;;;4.30;;
75700;SDS011;64321;48.796;44.740;2023-11-21T16:37:28;8.77;;;4.57;;
75700;SDS011;64321;48.796;44.740;2023-11-21T16:42:31;8.88;;;4.85;;
75700;SDS011;64321;48.796;44.740;2023-11-21T16:47:37;10.30;;;5.63;;
75700;SDS011;64321;48.796;44.740;2023-11-21T16:52:44;10.98;;;5.55;;
75700;SDS011;64321;48.796;44.740;2023-11-21T16:57:47;11.70;;;5.93;;
75700;SDS011;64321;48.796;44.740;2023-11-21T17:02:54;11.35;;;5.47;;
75700;SDS011;64321;48.796;44.740;2023-11-21T17:07:57;10.63;;;4.72;;
75700;SDS011;64321;48.796;44.740;2023-11-21T17:13:00;8.75;;;4.40;;
75700;SDS011;64321;48.796;44.740;2023-11-21T17:18:03;10.60;;;5.57;;
75700;SDS011;64321;48.796;44.740;2023-11-21T17:23:08;7.18;;;4.20;;
75700;SDS011;64321;48.796;44.740;2023-11-21T17:28:11;10.13;;;5.28;;
75700;SDS011;64321;48.796;44.740;2023-11-21T17:33:13;8.25;;;5.25;;
75700;SDS011;64321;48.796;44.740;2023-11-21T17:38:20;9.02;;;3.88;;
75700;SDS011;64321;48.796;44.740;2023-11-21T17:43:23;9.70;;;5.25;;
75700;SDS011;64321;48.796;44.740;2023-11-21T17:48:25;6.95;;;4.18;;
75700;SDS011;64321;48.796;44.740;2023-11-21T17:53:32;7.90;;;4.45;;
75700;SDS011;64321;48.796;44.740;2023-11-21T17:58:34;6.38;;;3.10;;
75700;SDS011;64321;48.796;44.740;2023-11-21T18:03:38;8.43;;;4.88;;
75700;SDS011;64321;48.796;44.740;2023-11-21T18:08:40;6.95;;;3.97;;
75700;SDS011;64321;48.796;44.740;2023-11-21T18:13:44;9.40;;;5.07;;
75700;SDS011;64321;48.796;44.740;2023-11-21T18:23:51;6.72;;;3.88;;
75700;SDS011;64321;48.796;44.740;2023-11-21T18:28:53;17.23;;;4.22;;
75700;SDS011;64321;48.796;44.740;2023-11-21T18:38:57;5.97;;;3.70;;
75700;SDS011;64321;48.796;44.740;2023-11-21T18:49:02;7.32;;;4.90;;
75700;SDS011;64321;48.796;44.740;2023-11-21T18:59:10;10.93;;;5.57;;
75700;SDS011;64321;48.796;44.740;2023-11-21T19:04:13;11.57;;;5.97;;
75700;SDS011;64321;48.796;44.740;2023-11-21T19:09:17;10.57;;;5.80;;
75700;SDS011;64321;48.796;44.740;2023-11-21T19:19:22;9.50;;;5.10;;
75700;SDS011;64321;48.796;44.740;2023-11-21T19:24:25;9.55;;;4.97;;
75700;SDS011;64321;48.796;44.740;2023-11-21T19:34:29;12.93;;;5.93;;
75700;SDS011;64321;48.796;44.740;2023-11-21T19:39:32;9.80;;;6.05;;
75700;SDS011;64321;48.796;44.740;2023-11-21T19:44:34;8.10;;;4.70;;
75700;SDS011;64321;48.796;44.740;2023-11-21T19:49:38;7.32;;;4.50;;
75700;SDS011;64321;48.796;44.740;2023-11-21T19:59:43;9.10;;;4.53;;
75700;SDS011;64321;48.796;44.740;2023-11-21T20:04:47;14.73;;;6.43;;
75700;SDS011;64321;48.796;44.740;2023-11-21T20:09:49;11.93;;;6.53;;
75700;SDS011;64321;48.796;44.740;2023-11-21T20:19:54;9.13;;;4.32;;
75700;SDS011;64321;48.796;44.740;2023-11-21T20:24:56;8.15;;;4.75;;
75700;SDS011;64321;48.796;44.740;2023-11-21T20:35:03;8.40;;;4.90;;
75700;SDS011;64321;48.796;44.740;2023-11-21T20:40:07;11.73;;;5.70;;
75700;SDS011;64321;48.796;44.740;2023-11-21T20:45:10;10.63;;;5.72;;
75700;SDS011;64321;48.796;44.740;2023-11-21T20:50:12;12.10;;;6.28;;
75700;SDS011;64321;48.796;44.740;2023-11-21T21:00:17;10.43;;;5.20;;
75700;SDS011;64321;48.796;44.740;2023-11-21T21:05:20;8.35;;;3.92;;
75700;SDS011;64321;48.796;44.740;2023-11-21T21:10:24;12.52;;;4.47;;
75700;SDS011;64321;48.796;44.740;2023-11-21T21:15:30;15.52;;;6.97;;
75700;SDS011;64321;48.796;44.740;2023-11-21T21:25:35;8.57;;;4.07;;
75700;SDS011;64321;48.796;44.740;2023-11-21T21:30:37;10.80;;;5.47;;
75700;SDS011;64321;48.796;44.740;2023-11-21T21:35:47;9.57;;;4.30;;
75700;SDS011;64321;48.796;44.740;2023-11-21T21:40:50;11.60;;;5.68;;
75700;SDS011;64321;48.796;44.740;2023-11-21T21:45:54;10.95;;;5.13;;
75700;SDS011;64321;48.796;44.740;2023-11-21T21:50:57;8.15;;;3.53;;
75700;SDS011;64321;48.796;44.740;2023-11-21T21:56:00;8.75;;;5.07;;
75700;SDS011;64321;48.796;44.740;2023-11-21T22:06:07;9.30;;;4.80;;
75700;SDS011;64321;48.796;44.740;2023-11-21T22:11:10;12.55;;;6.35;;
75700;SDS011;64321;48.796;44.740;2023-11-21T22:16:14;11.45;;;6.35;;
75700;SDS011;64321;48.796;44.740;2023-11-21T22:21:17;11.90;;;6.10;;
75700;SDS011;64321;48.796;44.740;2023-11-21T22:26:20;9.95;;;5.10;;
75700;SDS011;64321;48.796;44.740;2023-11-21T22:31:22;12.68;;;6.53;;
75700;SDS011;64321;48.796;44.740;2023-11-21T22:36:25;11.20;;;6.57;;
75700;SDS011;64321;48.796;44.740;2023-11-21T22:41:28;14.65;;;7.78;;
75700;SDS011;64321;48.796;44.740;2023-11-21T22:46:31;14.55;;;7.18;;
75700;SDS011;64321;48.796;44.740;2023-11-21T22:51:33;9.80;;;5.13;;
75700;SDS011;64321;48.796;44.740;2023-11-21T22:56:35;9.02;;;4.63;;
75700;SDS011;64321;48.796;44.740;2023-11-21T23:06:40;7.35;;;4.10;;
75700;SDS011;64321;48.796;44.740;2023-11-21T23:16:45;8.00;;;4.82;;
75700;SDS011;64321;48.796;44.740;2023-11-21T23:21:50;15.75;;;8.00;;
75700;SDS011;64321;48.796;44.740;2023-11-21T23:31:55;8.45;;;4.55;;
75700;SDS011;64321;48.796;44.740;2023-11-21T23:36:57;11.13;;;6.05;;
75700;SDS011;64321;48.796;44.740;2023-11-21T23:42:00;12.13;;;4.80;;
75700;SDS011;64321;48.796;44.740;2023-11-21T23:47:02;11.25;;;6.00;;
75700;SDS011;64321;48.796;44.740;2023-11-21T23:52:06;12.90;;;7.05;;
75700;SDS011;64321;48.796;44.740;2023-11-21T23:57:09;7.28;;;3.72;;
